createdAt,value
2023-01-17T00:02:49.206Z,5.45
2023-01-17T00:06:11.239Z,5.49
2023-01-17T00:09:33.510Z,5.57
2023-01-17T00:12:37.031Z,5.53
2023-01-17T00:15:40.185Z,5.59
2023-01-17T00:19:03.129Z,5.54
2023-01-17T00:22:28.954Z,5.61
2023-01-17T00:25:53.949Z,5.55
2023-01-17T00:28:56.499Z,5.65
2023-01-17T00:31:59.277Z,5.82
2023-01-17T00:35:01.750Z,5.83
2023-01-17T00:38:11.126Z,5.77
2023-01-17T00:41:14.758Z,5.84
2023-01-17T00:44:36.812Z,5.74
2023-01-17T00:47:58.037Z,5.92
2023-01-17T00:51:22.157Z,5.86
2023-01-17T00:54:43.204Z,5.86
2023-01-17T00:58:04.281Z,5.99
2023-01-17T01:01:25.857Z,5.97
2023-01-17T01:04:47.444Z,6.05
2023-01-17T01:08:08.657Z,6.06
2023-01-17T01:11:36.635Z,6.18
2023-01-17T01:14:57.621Z,6.10
2023-01-17T01:18:26.682Z,6.40
2023-01-17T01:21:47.844Z,6.35
2023-01-17T01:25:09.437Z,6.28
2023-01-17T01:28:32.694Z,6.27
2023-01-17T01:31:54.494Z,6.36
2023-01-17T01:34:57.060Z,6.23
2023-01-17T01:38:02.435Z,6.22
2023-01-17T01:41:05.708Z,6.17
2023-01-17T01:44:47.329Z,6.30
2023-01-17T01:47:53.993Z,6.35
2023-01-17T01:50:56.973Z,6.22
2023-01-17T01:54:06.288Z,6.40
2023-01-17T01:57:12.768Z,6.53
2023-01-17T02:00:44.973Z,6.55
2023-01-17T02:03:49.385Z,6.55
2023-01-17T02:07:14.677Z,6.62
2023-01-17T02:10:17.736Z,6.64
2023-01-17T02:13:21.059Z,6.70
2023-01-17T02:16:51.507Z,6.83
2023-01-17T02:20:16.348Z,6.91
2023-01-17T02:23:22.368Z,6.78
2023-01-17T02:26:46.222Z,6.83
2023-01-17T02:30:26.744Z,6.84
2023-01-17T02:33:39.198Z,6.77
2023-01-17T02:36:49.889Z,6.76
2023-01-17T02:40:02.439Z,6.55
2023-01-17T02:43:11.945Z,6.16
2023-01-17T02:46:14.566Z,5.82
2023-01-17T02:49:22.123Z,5.94
2023-01-17T02:52:42.892Z,5.84
2023-01-17T02:55:45.781Z,5.79
2023-01-17T02:58:57.404Z,5.84
2023-01-17T03:02:06.106Z,5.81
2023-01-17T03:05:21.606Z,5.73
2023-01-17T03:08:25.973Z,5.74
2023-01-17T03:11:28.662Z,5.76
2023-01-17T03:14:31.931Z,5.95
2023-01-17T03:17:34.566Z,6.06
2023-01-17T03:20:37.975Z,5.94
2023-01-17T03:23:40.597Z,5.88
2023-01-17T03:26:47.941Z,5.84
2023-01-17T03:29:50.588Z,5.81
2023-01-17T03:32:53.476Z,5.76
2023-01-17T03:35:58.259Z,5.73
2023-01-17T03:39:03.020Z,5.67
2023-01-17T03:42:05.686Z,5.61
2023-01-17T03:45:09.189Z,5.54
2023-01-17T03:48:12.040Z,5.45
2023-01-17T03:51:15.629Z,5.31
2023-01-17T03:54:18.238Z,5.25
2023-01-17T03:57:21.100Z,5.18
2023-01-17T04:00:23.891Z,5.20
2023-01-17T04:03:27.051Z,5.19
2023-01-17T04:06:29.865Z,5.23
2023-01-17T04:09:34.569Z,5.04
2023-01-17T04:12:37.180Z,4.85
2023-01-17T04:15:40.699Z,4.68
2023-01-17T04:18:44.750Z,4.62
2023-01-17T04:21:47.673Z,4.48
2023-01-17T04:24:50.333Z,4.28
2023-01-17T04:27:54.314Z,4.15
2023-01-17T04:31:00.692Z,4.27
2023-01-17T04:34:03.681Z,4.17
2023-01-17T04:37:06.516Z,4.02
2023-01-17T04:40:11.049Z,4.11
2023-01-17T04:43:13.644Z,4.08
2023-01-17T04:46:16.533Z,4.20
2023-01-17T04:49:20.110Z,4.12
2023-01-17T04:52:23.064Z,4.01
2023-01-17T04:55:26.896Z,4.08
2023-01-17T04:58:31.288Z,4.10
2023-01-17T05:01:34.075Z,4.01
2023-01-17T05:04:37.005Z,3.90
2023-01-17T05:07:39.618Z,3.96
2023-01-17T05:10:42.542Z,4.10
2023-01-17T05:13:47.491Z,3.93
2023-01-17T05:16:55.831Z,3.85
2023-01-17T05:19:58.535Z,3.75
2023-01-17T05:23:02.025Z,3.76
2023-01-17T05:26:04.699Z,3.70
2023-01-17T05:29:07.659Z,3.63
2023-01-17T05:32:10.320Z,3.56
2023-01-17T05:35:13.276Z,3.47
2023-01-17T05:38:16.121Z,3.42
2023-01-17T05:41:19.088Z,3.47
2023-01-17T05:44:21.664Z,3.45
2023-01-17T05:47:24.578Z,3.22
2023-01-17T05:50:33.324Z,3.19
2023-01-17T05:53:36.278Z,3.20
2023-01-17T05:56:39.071Z,3.25
2023-01-17T05:59:42.785Z,3.26
2023-01-17T06:02:46.267Z,3.22
2023-01-17T06:05:50.195Z,3.25
2023-01-17T06:08:53.073Z,3.27
2023-01-17T06:11:55.952Z,3.54
2023-01-17T06:14:58.596Z,3.53
2023-01-17T06:18:12.569Z,3.70
2023-01-17T06:21:15.331Z,3.81
2023-01-17T06:24:18.237Z,3.81
2023-01-17T06:27:21.120Z,3.80
2023-01-17T06:30:24.018Z,3.99
2023-01-17T06:33:26.908Z,4.20
2023-01-17T06:36:30.509Z,4.28
2023-01-17T06:39:33.629Z,4.43
2023-01-17T06:42:36.553Z,4.40
2023-01-17T06:45:39.171Z,4.42
2023-01-17T06:48:43.706Z,4.58
2023-01-17T06:51:46.687Z,4.86
2023-01-17T06:54:49.896Z,4.94
2023-01-17T06:57:52.599Z,5.12
2023-01-17T13:17:00.681Z,9.68
2023-01-17T13:20:19.335Z,9.76
2023-01-17T13:23:50.315Z,9.77
2023-01-17T13:26:56.126Z,9.75
2023-01-17T13:30:35.891Z,9.74
2023-01-17T13:33:44.909Z,9.79
2023-01-17T13:37:21.008Z,9.76
2023-01-17T13:40:33.965Z,9.65
2023-01-17T13:44:02.094Z,9.60
2023-01-17T13:47:11.419Z,9.58
2023-01-17T13:50:38.998Z,9.61
2023-01-17T13:53:41.780Z,9.58
2023-01-17T13:56:44.488Z,9.67
2023-01-17T13:59:47.507Z,9.75
2023-01-17T14:02:51.622Z,9.71
2023-01-17T14:05:58.155Z,9.79
2023-01-17T14:09:25.404Z,9.76
2023-01-17T14:12:32.920Z,9.67
2023-01-17T14:15:49.851Z,9.64
2023-01-17T14:18:55.534Z,9.70
2023-01-17T14:22:16.844Z,9.64
2023-01-17T14:25:31.216Z,9.64
2023-01-17T14:28:33.871Z,9.56
2023-01-17T14:31:37.759Z,9.49
2023-01-17T14:34:40.615Z,9.43
2023-01-17T14:37:47.749Z,9.38
2023-01-17T14:41:04.655Z,9.30
2023-01-17T14:44:11.275Z,9.23
2023-01-17T14:47:15.953Z,9.20
2023-01-17T14:50:21.816Z,9.13
2023-01-17T14:53:29.089Z,9.08
2023-01-17T14:56:33.359Z,8.90
2023-01-17T14:59:35.920Z,8.71
2023-01-17T15:02:43.994Z,8.77
2023-01-17T15:05:50.121Z,8.83
2023-01-17T15:08:58.410Z,8.83
2023-01-17T15:12:02.662Z,8.83
2023-01-17T15:15:38.352Z,8.78
2023-01-17T15:18:42.573Z,8.78
2023-01-17T15:21:50.749Z,8.68
2023-01-17T15:24:54.347Z,8.54
2023-01-17T15:27:57.585Z,8.65
2023-01-17T15:31:10.959Z,8.73
2023-01-17T15:34:38.647Z,8.78
2023-01-17T15:37:41.818Z,8.78
2023-01-17T15:40:45.780Z,8.64
2023-01-17T15:43:48.368Z,8.66
2023-01-17T15:46:51.334Z,8.77
2023-01-17T15:49:54.477Z,8.76
2023-01-17T15:53:06.711Z,8.90
2023-01-17T15:56:24.543Z,8.65
2023-01-17T15:59:42.980Z,8.44
2023-01-17T16:02:58.893Z,8.44
2023-01-17T16:06:03.125Z,8.39
2023-01-17T16:09:22.470Z,8.50
2023-01-17T16:12:25.409Z,8.56
2023-01-17T16:15:29.282Z,8.93
2023-01-17T16:18:32.246Z,8.65
2023-01-17T16:21:35.407Z,8.87
2023-01-17T16:24:38.277Z,8.79
2023-01-17T16:27:43.132Z,8.86
2023-01-17T16:30:48.990Z,8.81
2023-01-17T16:33:52.545Z,8.95
2023-01-17T16:36:55.477Z,8.86
2023-01-17T16:39:58.336Z,8.86
2023-01-17T16:43:01.354Z,8.79
2023-01-17T16:46:04.022Z,8.84
2023-01-17T16:49:19.452Z,8.92
2023-01-17T16:52:22.512Z,8.89
2023-01-17T16:55:26.628Z,8.90
2023-01-17T16:58:29.228Z,9.02
2023-01-17T17:01:32.314Z,8.81
2023-01-17T17:04:35.032Z,8.86
2023-01-17T17:07:45.496Z,8.89
2023-01-17T17:10:48.335Z,8.95
2023-01-17T17:13:52.183Z,8.91
2023-01-17T17:16:56.269Z,8.97
2023-01-17T17:19:59.206Z,8.91
2023-01-17T17:23:01.778Z,9.05
2023-01-17T17:26:05.721Z,9.10
2023-01-17T17:29:12.082Z,9.12
2023-01-17T17:32:17.277Z,9.26
2023-01-17T17:35:19.892Z,9.18
2023-01-17T17:38:22.844Z,9.25
2023-01-17T17:41:28.330Z,9.20
2023-01-17T17:44:31.294Z,9.18
2023-01-17T17:47:34.057Z,9.26
2023-01-17T17:50:36.978Z,9.01
2023-01-17T17:53:39.558Z,9.16
2023-01-17T17:56:46.557Z,9.24
2023-01-17T17:59:49.201Z,8.98
2023-01-17T18:02:52.111Z,9.02
2023-01-17T18:06:01.835Z,8.94
2023-01-17T18:09:09.099Z,8.89
2023-01-17T18:12:12.047Z,8.91
2023-01-17T18:15:15.379Z,9.11
2023-01-17T18:18:18.416Z,9.13
2023-01-17T18:21:25.327Z,9.08
2023-01-17T18:24:28.448Z,9.08
2023-01-17T18:27:31.321Z,9.11
2023-01-17T18:30:38.571Z,9.11
2023-01-17T18:33:41.521Z,9.09
2023-01-17T18:36:44.746Z,9.18
2023-01-17T18:39:47.612Z,9.12
2023-01-17T18:42:51.052Z,9.27
2023-01-17T18:45:54.009Z,9.18
2023-01-17T18:48:57.904Z,9.05
2023-01-17T18:52:00.988Z,9.01
2023-01-17T18:55:04.666Z,9.09
2023-01-17T18:58:09.235Z,9.12
2023-01-17T19:01:22.294Z,9.10
2023-01-17T19:04:25.660Z,9.16
2023-01-17T19:07:31.011Z,8.96
2023-01-17T19:10:33.796Z,8.93
2023-01-17T19:13:38.763Z,8.95
2023-01-17T19:16:42.315Z,9.06
2023-01-17T19:19:46.635Z,9.10
2023-01-17T19:22:52.719Z,9.07
2023-01-17T19:25:56.606Z,8.94
2023-01-17T19:29:00.355Z,8.92
2023-01-17T19:32:03.409Z,8.82
2023-01-17T19:35:08.623Z,8.92
2023-01-17T19:38:11.683Z,8.83
2023-01-17T19:41:18.429Z,8.97
2023-01-17T19:44:21.486Z,8.79
2023-01-17T19:47:24.252Z,8.77
2023-01-17T19:50:29.670Z,8.84
2023-01-17T19:53:33.004Z,8.81
2023-01-17T19:56:36.121Z,8.87
2023-01-17T19:59:38.736Z,8.84
2023-01-17T20:02:41.873Z,8.78
2023-01-17T20:05:46.209Z,8.66
2023-01-17T20:08:49.088Z,8.64
2023-01-17T20:11:52.224Z,8.68
2023-01-17T20:14:55.012Z,8.69
2023-01-17T20:17:58.314Z,8.74
2023-01-17T20:21:23.361Z,8.67
2023-01-17T20:24:26.672Z,8.83
2023-01-17T20:27:29.326Z,8.72
2023-01-17T20:30:34.638Z,8.77
2023-01-17T20:33:37.581Z,8.84
2023-01-17T20:36:42.199Z,8.86
2023-01-17T20:39:46.056Z,8.93
2023-01-17T20:42:48.992Z,8.95
2023-01-17T20:46:03.452Z,8.89
2023-01-17T20:49:13.404Z,9.02
2023-01-17T20:52:16.660Z,8.94
2023-01-17T20:55:19.605Z,9.04
2023-01-17T20:58:27.604Z,8.97
2023-01-17T21:01:30.781Z,9.08
2023-01-17T21:04:33.422Z,8.85
2023-01-17T21:07:37.290Z,8.88
2023-01-17T21:10:39.823Z,8.86
2023-01-17T21:13:43.103Z,9.03
2023-01-17T21:16:45.808Z,8.98
2023-01-17T21:19:48.693Z,8.98
2023-01-17T21:22:52.285Z,9.00
2023-01-17T21:25:59.137Z,8.84
2023-01-17T21:29:02.089Z,8.85
2023-01-17T21:32:05.599Z,8.91
2023-01-17T21:35:08.596Z,8.90
2023-01-17T21:38:12.800Z,9.13
2023-01-17T21:41:16.050Z,9.25
2023-01-17T21:44:21.712Z,9.34
2023-01-17T21:47:24.412Z,9.27
2023-01-17T21:50:33.305Z,9.29
2023-01-17T21:53:38.375Z,9.22
2023-01-17T21:57:00.322Z,9.20
2023-01-17T22:00:06.470Z,9.11
2023-01-17T22:03:13.996Z,9.06
2023-01-17T22:06:18.055Z,9.07
2023-01-17T22:09:23.996Z,9.10
2023-01-17T22:12:27.139Z,9.11
2023-01-17T22:15:29.794Z,9.25
2023-01-17T22:18:39.048Z,9.16
2023-01-17T22:21:43.908Z,9.18
2023-01-17T22:24:46.960Z,9.17
2023-01-17T22:27:49.904Z,9.28
2023-01-17T22:30:52.967Z,9.24
2023-01-17T22:33:58.233Z,9.23
2023-01-17T22:37:02.474Z,9.15
2023-01-17T22:40:05.976Z,9.21
2023-01-17T22:43:08.900Z,9.25
2023-01-17T22:46:14.682Z,9.29
2023-01-17T22:49:18.651Z,9.23
2023-01-17T22:52:21.249Z,9.09
2023-01-17T22:55:24.267Z,9.05
2023-01-17T22:58:28.772Z,9.10
2023-01-17T23:01:32.961Z,9.04
2023-01-17T23:04:36.036Z,8.93
2023-01-17T23:07:44.917Z,8.93
2023-01-17T23:11:06.152Z,8.86
2023-01-17T23:14:52.691Z,8.84
2023-01-17T23:18:14.072Z,8.75
2023-01-17T23:21:17.439Z,8.64
2023-01-17T23:24:20.171Z,8.59
2023-01-17T23:27:47.651Z,8.55
2023-01-17T23:30:50.310Z,8.45
2023-01-17T23:33:53.177Z,8.56
2023-01-17T23:36:55.766Z,8.63
2023-01-17T23:39:58.662Z,8.63
2023-01-17T23:43:19.666Z,8.76
2023-01-17T23:46:25.340Z,8.70
2023-01-17T23:49:29.656Z,8.74
2023-01-17T23:52:32.537Z,8.78
2023-01-17T23:55:39.801Z,8.96
2023-01-17T23:58:42.750Z,8.87
